sensor_id;sensor_type;location;lat;lon;timestamp;P1;durP1;ratioP1;P2;durP2;ratioP2
68507;SDS011;55510;49.560;19.090;2023-02-18T00:02:33;12.65;;;7.03;;
68507;SDS011;55510;49.560;19.090;2023-02-18T00:05:34;9.10;;;4.47;;
68507;SDS011;55510;49.560;19.090;2023-02-18T00:08:35;7.90;;;4.30;;
68507;SDS011;55510;49.560;19.090;2023-02-18T00:11:36;10.35;;;5.35;;
68507;SDS011;55510;49.560;19.090;2023-02-18T00:14:37;9.33;;;5.10;;
68507;SDS011;55510;49.560;19.090;2023-02-18T00:17:38;9.27;;;5.20;;
68507;SDS011;55510;49.560;19.090;2023-02-18T00:20:39;10.77;;;4.28;;
68507;SDS011;55510;49.560;19.090;2023-02-18T00:23:39;10.97;;;5.43;;
68507;SDS011;55510;49.560;19.090;2023-02-18T00:26:41;9.32;;;4.63;;
68507;SDS011;55510;49.560;19.090;2023-02-18T00:29:41;9.50;;;4.68;;
68507;SDS011;55510;49.560;19.090;2023-02-18T00:32:42;12.77;;;5.47;;
68507;SDS011;55510;49.560;19.090;2023-02-18T00:35:43;10.57;;;4.30;;
68507;SDS011;55510;49.560;19.090;2023-02-18T00:38:45;10.23;;;4.60;;
68507;SDS011;55510;49.560;19.090;2023-02-18T00:41:46;7.33;;;3.10;;
68507;SDS011;55510;49.560;19.090;2023-02-18T00:44:47;11.30;;;4.70;;
68507;SDS011;55510;49.560;19.090;2023-02-18T00:47:47;7.17;;;3.40;;
68507;SDS011;55510;49.560;19.090;2023-02-18T00:50:48;6.97;;;3.78;;
68507;SDS011;55510;49.560;19.090;2023-02-18T00:53:48;7.33;;;3.40;;
68507;SDS011;55510;49.560;19.090;2023-02-18T00:56:52;7.43;;;3.40;;
68507;SDS011;55510;49.560;19.090;2023-02-18T00:59:52;6.03;;;3.33;;
68507;SDS011;55510;49.560;19.090;2023-02-18T01:02:53;6.65;;;2.67;;
68507;SDS011;55510;49.560;19.090;2023-02-18T01:05:54;4.47;;;2.10;;
68507;SDS011;55510;49.560;19.090;2023-02-18T01:08:55;4.50;;;1.90;;
68507;SDS011;55510;49.560;19.090;2023-02-18T01:11:55;4.67;;;1.97;;
68507;SDS011;55510;49.560;19.090;2023-02-18T01:14:56;4.22;;;1.88;;
68507;SDS011;55510;49.560;19.090;2023-02-18T01:17:57;3.97;;;1.50;;
68507;SDS011;55510;49.560;19.090;2023-02-18T01:20:58;4.22;;;1.58;;
68507;SDS011;55510;49.560;19.090;2023-02-18T01:23:58;2.90;;;1.03;;
68507;SDS011;55510;49.560;19.090;2023-02-18T01:26:59;4.85;;;1.63;;
68507;SDS011;55510;49.560;19.090;2023-02-18T01:30:00;3.87;;;1.13;;
68507;SDS011;55510;49.560;19.090;2023-02-18T01:33:01;3.38;;;1.25;;
68507;SDS011;55510;49.560;19.090;2023-02-18T01:36:02;3.33;;;0.83;;
68507;SDS011;55510;49.560;19.090;2023-02-18T01:39:04;3.10;;;0.73;;
68507;SDS011;55510;49.560;19.090;2023-02-18T01:42:05;3.63;;;0.80;;
68507;SDS011;55510;49.560;19.090;2023-02-18T01:51:41;20.70;;;8.77;;
68507;SDS011;55510;49.560;19.090;2023-02-18T01:54:49;10.02;;;3.72;;
68507;SDS011;55510;49.560;19.090;2023-02-18T01:57:54;6.53;;;3.42;;
68507;SDS011;55510;49.560;19.090;2023-02-18T02:00:55;7.33;;;4.10;;
68507;SDS011;55510;49.560;19.090;2023-02-18T02:03:56;6.22;;;4.40;;
68507;SDS011;55510;49.560;19.090;2023-02-18T02:06:56;5.97;;;2.77;;
68507;SDS011;55510;49.560;19.090;2023-02-18T02:10:00;7.50;;;3.20;;
68507;SDS011;55510;49.560;19.090;2023-02-18T02:13:25;7.68;;;3.97;;
68507;SDS011;55510;49.560;19.090;2023-02-18T02:16:36;7.40;;;3.42;;
68507;SDS011;55510;49.560;19.090;2023-02-18T02:30:24;33.08;;;15.13;;
68507;SDS011;55510;49.560;19.090;2023-02-18T02:44:08;36.53;;;15.32;;
68507;SDS011;55510;49.560;19.090;2023-02-18T02:47:55;30.35;;;13.85;;
68507;SDS011;55510;49.560;19.090;2023-02-18T02:54:29;37.53;;;16.93;;
68507;SDS011;55510;49.560;19.090;2023-02-18T03:00:39;17.73;;;7.60;;
68507;SDS011;55510;49.560;19.090;2023-02-18T03:07:10;12.40;;;6.97;;
68507;SDS011;55510;49.560;19.090;2023-02-18T03:17:35;22.10;;;11.07;;
68507;SDS011;55510;49.560;19.090;2023-02-18T03:21:04;14.57;;;7.78;;
68507;SDS011;55510;49.560;19.090;2023-02-18T03:24:11;16.98;;;7.63;;
68507;SDS011;55510;49.560;19.090;2023-02-18T03:30:34;18.70;;;11.20;;
68507;SDS011;55510;49.560;19.090;2023-02-18T03:33:43;20.93;;;11.77;;
68507;SDS011;55510;49.560;19.090;2023-02-18T03:36:47;21.17;;;10.88;;
68507;SDS011;55510;49.560;19.090;2023-02-18T03:39:50;16.95;;;9.27;;
68507;SDS011;55510;49.560;19.090;2023-02-18T03:42:55;17.40;;;8.57;;
68507;SDS011;55510;49.560;19.090;2023-02-18T03:45:57;20.60;;;10.73;;
68507;SDS011;55510;49.560;19.090;2023-02-18T03:48:59;37.00;;;18.73;;
68507;SDS011;55510;49.560;19.090;2023-02-18T03:51:59;43.35;;;22.75;;
68507;SDS011;55510;49.560;19.090;2023-02-18T03:55:00;35.97;;;19.20;;
68507;SDS011;55510;49.560;19.090;2023-02-18T03:58:00;37.20;;;20.23;;
68507;SDS011;55510;49.560;19.090;2023-02-18T04:01:01;42.77;;;20.10;;
68507;SDS011;55510;49.560;19.090;2023-02-18T04:04:02;30.80;;;16.45;;
68507;SDS011;55510;49.560;19.090;2023-02-18T04:07:06;29.38;;;14.32;;
68507;SDS011;55510;49.560;19.090;2023-02-18T04:10:07;27.17;;;12.30;;
68507;SDS011;55510;49.560;19.090;2023-02-18T04:13:08;21.42;;;10.13;;
68507;SDS011;55510;49.560;19.090;2023-02-18T04:16:09;20.90;;;8.18;;
68507;SDS011;55510;49.560;19.090;2023-02-18T04:19:10;24.97;;;11.43;;
68507;SDS011;55510;49.560;19.090;2023-02-18T04:22:10;29.02;;;12.07;;
68507;SDS011;55510;49.560;19.090;2023-02-18T04:25:11;41.10;;;16.47;;
68507;SDS011;55510;49.560;19.090;2023-02-18T04:28:12;52.63;;;21.93;;
68507;SDS011;55510;49.560;19.090;2023-02-18T04:31:14;47.17;;;20.38;;
68507;SDS011;55510;49.560;19.090;2023-02-18T04:34:15;42.47;;;18.60;;
68507;SDS011;55510;49.560;19.090;2023-02-18T04:37:16;29.07;;;14.40;;
68507;SDS011;55510;49.560;19.090;2023-02-18T04:40:16;27.10;;;12.83;;
68507;SDS011;55510;49.560;19.090;2023-02-18T04:43:17;30.67;;;14.07;;
68507;SDS011;55510;49.560;19.090;2023-02-18T04:46:17;30.17;;;13.87;;
68507;SDS011;55510;49.560;19.090;2023-02-18T04:49:18;23.55;;;11.60;;
68507;SDS011;55510;49.560;19.090;2023-02-18T04:52:19;23.00;;;11.37;;
68507;SDS011;55510;49.560;19.090;2023-02-18T04:55:20;14.68;;;7.75;;
68507;SDS011;55510;49.560;19.090;2023-02-18T04:58:20;14.93;;;7.33;;
68507;SDS011;55510;49.560;19.090;2023-02-18T05:01:21;15.45;;;7.80;;
68507;SDS011;55510;49.560;19.090;2023-02-18T05:04:22;18.60;;;8.63;;
68507;SDS011;55510;49.560;19.090;2023-02-18T05:07:23;24.38;;;11.88;;
68507;SDS011;55510;49.560;19.090;2023-02-18T05:10:23;18.67;;;10.13;;
68507;SDS011;55510;49.560;19.090;2023-02-18T05:13:24;19.95;;;9.77;;
68507;SDS011;55510;49.560;19.090;2023-02-18T05:16:25;16.73;;;7.47;;
68507;SDS011;55510;49.560;19.090;2023-02-18T05:19:26;19.00;;;9.05;;
68507;SDS011;55510;49.560;19.090;2023-02-18T05:22:26;16.57;;;8.50;;
68507;SDS011;55510;49.560;19.090;2023-02-18T05:25:27;16.40;;;8.20;;
68507;SDS011;55510;49.560;19.090;2023-02-18T05:28:27;12.97;;;5.87;;
68507;SDS011;55510;49.560;19.090;2023-02-18T05:31:28;15.88;;;7.13;;
68507;SDS011;55510;49.560;19.090;2023-02-18T05:34:29;16.77;;;6.70;;
68507;SDS011;55510;49.560;19.090;2023-02-18T05:37:30;20.67;;;9.07;;
68507;SDS011;55510;49.560;19.090;2023-02-18T05:40:30;21.08;;;9.70;;
68507;SDS011;55510;49.560;19.090;2023-02-18T05:43:31;17.20;;;8.17;;
68507;SDS011;55510;49.560;19.090;2023-02-18T05:46:52;17.10;;;7.33;;
68507;SDS011;55510;49.560;19.090;2023-02-18T05:49:52;19.33;;;7.90;;
68507;SDS011;55510;49.560;19.090;2023-02-18T05:52:55;29.30;;;12.45;;
68507;SDS011;55510;49.560;19.090;2023-02-18T05:55:55;28.90;;;12.40;;
68507;SDS011;55510;49.560;19.090;2023-02-18T05:58:56;22.70;;;9.98;;
68507;SDS011;55510;49.560;19.090;2023-02-18T06:01:57;22.10;;;10.37;;
68507;SDS011;55510;49.560;19.090;2023-02-18T06:04:57;24.20;;;11.23;;
68507;SDS011;55510;49.560;19.090;2023-02-18T06:07:58;25.38;;;13.95;;
68507;SDS011;55510;49.560;19.090;2023-02-18T06:10:59;26.07;;;11.80;;
68507;SDS011;55510;49.560;19.090;2023-02-18T06:13:59;26.75;;;12.25;;
68507;SDS011;55510;49.560;19.090;2023-02-18T06:17:00;24.20;;;10.90;;
68507;SDS011;55510;49.560;19.090;2023-02-18T06:20:01;19.92;;;9.13;;
68507;SDS011;55510;49.560;19.090;2023-02-18T06:23:02;21.03;;;10.00;;
68507;SDS011;55510;49.560;19.090;2023-02-18T06:26:02;22.45;;;10.02;;
68507;SDS011;55510;49.560;19.090;2023-02-18T06:29:03;22.90;;;11.77;;
68507;SDS011;55510;49.560;19.090;2023-02-18T06:32:04;30.88;;;15.30;;
68507;SDS011;55510;49.560;19.090;2023-02-18T06:35:05;33.33;;;16.77;;
68507;SDS011;55510;49.560;19.090;2023-02-18T06:38:06;32.67;;;14.30;;
68507;SDS011;55510;49.560;19.090;2023-02-18T06:41:07;29.48;;;14.88;;
68507;SDS011;55510;49.560;19.090;2023-02-18T06:44:08;24.17;;;12.60;;
68507;SDS011;55510;49.560;19.090;2023-02-18T06:47:10;29.85;;;13.90;;
68507;SDS011;55510;49.560;19.090;2023-02-18T06:50:11;32.85;;;14.55;;
68507;SDS011;55510;49.560;19.090;2023-02-18T06:53:11;36.00;;;16.53;;
68507;SDS011;55510;49.560;19.090;2023-02-18T06:56:12;32.80;;;15.88;;
68507;SDS011;55510;49.560;19.090;2023-02-18T06:59:13;52.50;;;25.33;;
68507;SDS011;55510;49.560;19.090;2023-02-18T07:02:14;31.60;;;15.63;;
68507;SDS011;55510;49.560;19.090;2023-02-18T07:05:14;36.00;;;16.50;;
68507;SDS011;55510;49.560;19.090;2023-02-18T07:08:15;32.42;;;14.00;;
68507;SDS011;55510;49.560;19.090;2023-02-18T07:11:16;34.83;;;16.40;;
68507;SDS011;55510;49.560;19.090;2023-02-18T07:14:17;34.75;;;16.70;;
68507;SDS011;55510;49.560;19.090;2023-02-18T07:17:17;33.97;;;16.13;;
68507;SDS011;55510;49.560;19.090;2023-02-18T07:20:19;39.13;;;17.77;;
68507;SDS011;55510;49.560;19.090;2023-02-18T07:23:20;46.08;;;22.50;;
68507;SDS011;55510;49.560;19.090;2023-02-18T07:26:21;48.27;;;20.03;;
68507;SDS011;55510;49.560;19.090;2023-02-18T07:29:21;43.45;;;20.35;;
68507;SDS011;55510;49.560;19.090;2023-02-18T07:32:22;43.50;;;21.37;;
68507;SDS011;55510;49.560;19.090;2023-02-18T07:35:23;49.05;;;22.55;;
68507;SDS011;55510;49.560;19.090;2023-02-18T07:38:24;51.80;;;24.50;;
68507;SDS011;55510;49.560;19.090;2023-02-18T07:41:25;55.67;;;24.38;;
68507;SDS011;55510;49.560;19.090;2023-02-18T07:44:26;87.88;;;36.17;;
68507;SDS011;55510;49.560;19.090;2023-02-18T07:47:26;85.13;;;37.90;;
68507;SDS011;55510;49.560;19.090;2023-02-18T07:50:27;62.72;;;28.05;;
68507;SDS011;55510;49.560;19.090;2023-02-18T07:53:28;47.77;;;24.00;;
68507;SDS011;55510;49.560;19.090;2023-02-18T07:56:29;60.07;;;29.37;;
68507;SDS011;55510;49.560;19.090;2023-02-18T07:59:29;71.38;;;29.75;;
68507;SDS011;55510;49.560;19.090;2023-02-18T08:02:30;64.77;;;29.63;;
68507;SDS011;55510;49.560;19.090;2023-02-18T08:05:31;64.63;;;29.80;;
68507;SDS011;55510;49.560;19.090;2023-02-18T08:08:32;60.80;;;27.50;;
68507;SDS011;55510;49.560;19.090;2023-02-18T08:11:33;57.67;;;27.50;;
68507;SDS011;55510;49.560;19.090;2023-02-18T08:14:35;56.30;;;25.52;;
68507;SDS011;55510;49.560;19.090;2023-02-18T08:17:35;53.90;;;22.73;;
68507;SDS011;55510;49.560;19.090;2023-02-18T08:20:36;48.70;;;24.98;;
68507;SDS011;55510;49.560;19.090;2023-02-18T08:23:37;59.70;;;28.98;;
68507;SDS011;55510;49.560;19.090;2023-02-18T08:26:38;54.83;;;28.80;;
68507;SDS011;55510;49.560;19.090;2023-02-18T08:29:39;57.70;;;30.50;;
68507;SDS011;55510;49.560;19.090;2023-02-18T08:32:40;44.23;;;23.20;;
68507;SDS011;55510;49.560;19.090;2023-02-18T08:35:40;58.75;;;29.45;;
68507;SDS011;55510;49.560;19.090;2023-02-18T08:38:41;59.53;;;27.80;;
68507;SDS011;55510;49.560;19.090;2023-02-18T08:41:42;52.60;;;26.60;;
68507;SDS011;55510;49.560;19.090;2023-02-18T08:44:43;50.43;;;23.63;;
68507;SDS011;55510;49.560;19.090;2023-02-18T08:47:43;51.20;;;25.03;;
68507;SDS011;55510;49.560;19.090;2023-02-18T08:50:44;53.25;;;25.90;;
68507;SDS011;55510;49.560;19.090;2023-02-18T08:53:45;70.57;;;33.67;;
68507;SDS011;55510;49.560;19.090;2023-02-18T08:56:46;54.75;;;29.85;;
68507;SDS011;55510;49.560;19.090;2023-02-18T08:59:47;48.33;;;22.83;;
68507;SDS011;55510;49.560;19.090;2023-02-18T09:02:48;52.50;;;24.35;;
68507;SDS011;55510;49.560;19.090;2023-02-18T09:05:49;64.83;;;31.20;;
68507;SDS011;55510;49.560;19.090;2023-02-18T09:08:50;63.97;;;33.80;;
68507;SDS011;55510;49.560;19.090;2023-02-18T09:14:59;68.17;;;32.50;;
68507;SDS011;55510;49.560;19.090;2023-02-18T09:17:59;64.50;;;34.80;;
68507;SDS011;55510;49.560;19.090;2023-02-18T09:21:00;77.63;;;40.80;;
68507;SDS011;55510;49.560;19.090;2023-02-18T09:24:01;67.67;;;35.93;;
68507;SDS011;55510;49.560;19.090;2023-02-18T09:27:02;62.33;;;32.50;;
68507;SDS011;55510;49.560;19.090;2023-02-18T09:30:03;190.13;;;93.53;;
68507;SDS011;55510;49.560;19.090;2023-02-18T09:33:05;116.05;;;54.78;;
68507;SDS011;55510;49.560;19.090;2023-02-18T09:36:06;66.57;;;34.23;;
68507;SDS011;55510;49.560;19.090;2023-02-18T09:39:07;60.13;;;31.43;;
68507;SDS011;55510;49.560;19.090;2023-02-18T09:42:12;60.00;;;30.83;;
68507;SDS011;55510;49.560;19.090;2023-02-18T09:45:16;72.70;;;39.75;;
68507;SDS011;55510;49.560;19.090;2023-02-18T09:48:17;59.97;;;34.83;;
68507;SDS011;55510;49.560;19.090;2023-02-18T09:51:25;72.05;;;38.13;;
68507;SDS011;55510;49.560;19.090;2023-02-18T09:54:26;76.33;;;42.13;;
68507;SDS011;55510;49.560;19.090;2023-02-18T09:57:34;93.00;;;48.05;;
68507;SDS011;55510;49.560;19.090;2023-02-18T10:00:42;75.93;;;43.53;;
68507;SDS011;55510;49.560;19.090;2023-02-18T10:03:45;102.53;;;50.53;;
68507;SDS011;55510;49.560;19.090;2023-02-18T10:06:46;161.70;;;66.63;;
68507;SDS011;55510;49.560;19.090;2023-02-18T10:09:51;115.15;;;52.28;;
68507;SDS011;55510;49.560;19.090;2023-02-18T10:12:54;95.47;;;44.85;;
68507;SDS011;55510;49.560;19.090;2023-02-18T10:15:56;44.65;;;21.85;;
68507;SDS011;55510;49.560;19.090;2023-02-18T10:19:03;31.47;;;15.70;;
68507;SDS011;55510;49.560;19.090;2023-02-18T10:22:12;20.70;;;10.65;;
68507;SDS011;55510;49.560;19.090;2023-02-18T10:25:21;20.97;;;11.93;;
68507;SDS011;55510;49.560;19.090;2023-02-18T10:28:23;16.37;;;7.27;;
68507;SDS011;55510;49.560;19.090;2023-02-18T10:31:35;17.15;;;7.43;;
68507;SDS011;55510;49.560;19.090;2023-02-18T10:34:52;26.83;;;12.35;;
68507;SDS011;55510;49.560;19.090;2023-02-18T10:41:30;25.30;;;11.97;;
68507;SDS011;55510;49.560;19.090;2023-02-18T10:51:39;18.50;;;8.18;;
68507;SDS011;55510;49.560;19.090;2023-02-18T10:57:56;7.83;;;3.37;;
68507;SDS011;55510;49.560;19.090;2023-02-18T11:00:59;34.07;;;14.10;;
68507;SDS011;55510;49.560;19.090;2023-02-18T11:04:11;24.13;;;11.45;;
68507;SDS011;55510;49.560;19.090;2023-02-18T11:07:29;23.83;;;12.02;;
68507;SDS011;55510;49.560;19.090;2023-02-18T11:10:33;22.55;;;13.15;;
68507;SDS011;55510;49.560;19.090;2023-02-18T11:13:38;20.03;;;9.50;;
68507;SDS011;55510;49.560;19.090;2023-02-18T11:16:42;19.47;;;8.10;;
68507;SDS011;55510;49.560;19.090;2023-02-18T11:19:50;18.30;;;8.95;;
68507;SDS011;55510;49.560;19.090;2023-02-18T11:22:56;13.45;;;6.35;;
68507;SDS011;55510;49.560;19.090;2023-02-18T11:26:06;16.73;;;7.85;;
68507;SDS011;55510;49.560;19.090;2023-02-18T11:32:19;14.63;;;5.13;;
68507;SDS011;55510;49.560;19.090;2023-02-18T11:35:21;21.23;;;7.00;;
68507;SDS011;55510;49.560;19.090;2023-02-18T11:38:25;15.05;;;6.70;;
68507;SDS011;55510;49.560;19.090;2023-02-18T11:41:37;20.67;;;8.73;;
68507;SDS011;55510;49.560;19.090;2023-02-18T11:44:41;21.20;;;7.93;;
68507;SDS011;55510;49.560;19.090;2023-02-18T11:47:49;14.57;;;4.90;;
68507;SDS011;55510;49.560;19.090;2023-02-18T11:51:25;17.05;;;6.05;;
68507;SDS011;55510;49.560;19.090;2023-02-18T11:54:35;19.10;;;7.88;;
68507;SDS011;55510;49.560;19.090;2023-02-18T11:57:37;20.20;;;9.38;;
68507;SDS011;55510;49.560;19.090;2023-02-18T12:00:42;25.00;;;11.97;;
68507;SDS011;55510;49.560;19.090;2023-02-18T12:03:58;29.00;;;11.70;;
68507;SDS011;55510;49.560;19.090;2023-02-18T12:07:14;22.35;;;9.75;;
68507;SDS011;55510;49.560;19.090;2023-02-18T12:13:49;16.42;;;7.65;;
68507;SDS011;55510;49.560;19.090;2023-02-18T12:26:19;11.50;;;5.32;;
68507;SDS011;55510;49.560;19.090;2023-02-18T12:50:25;21.90;;;10.43;;
68507;SDS011;55510;49.560;19.090;2023-02-18T13:00:27;13.45;;;6.82;;
68507;SDS011;55510;49.560;19.090;2023-02-18T13:16:24;11.65;;;4.93;;
68507;SDS011;55510;49.560;19.090;2023-02-18T13:19:28;12.68;;;5.30;;
68507;SDS011;55510;49.560;19.090;2023-02-18T13:22:32;13.47;;;5.60;;
68507;SDS011;55510;49.560;19.090;2023-02-18T13:25:36;12.57;;;5.43;;
68507;SDS011;55510;49.560;19.090;2023-02-18T13:28:53;11.50;;;5.70;;
68507;SDS011;55510;49.560;19.090;2023-02-18T13:41:50;12.98;;;6.43;;
68507;SDS011;55510;49.560;19.090;2023-02-18T13:47:55;9.45;;;5.05;;
68507;SDS011;55510;49.560;19.090;2023-02-18T13:51:03;12.93;;;6.57;;
68507;SDS011;55510;49.560;19.090;2023-02-18T13:57:13;12.02;;;5.28;;
68507;SDS011;55510;49.560;19.090;2023-02-18T14:00:19;11.73;;;5.70;;
68507;SDS011;55510;49.560;19.090;2023-02-18T14:06:31;16.98;;;7.63;;
68507;SDS011;55510;49.560;19.090;2023-02-18T14:09:34;15.30;;;7.47;;
68507;SDS011;55510;49.560;19.090;2023-02-18T14:15:54;19.63;;;8.90;;
68507;SDS011;55510;49.560;19.090;2023-02-18T14:19:00;24.80;;;11.55;;
68507;SDS011;55510;49.560;19.090;2023-02-18T14:28:51;20.80;;;9.07;;
68507;SDS011;55510;49.560;19.090;2023-02-18T14:32:00;14.73;;;7.38;;
68507;SDS011;55510;49.560;19.090;2023-02-18T14:41:51;14.30;;;7.20;;
68507;SDS011;55510;49.560;19.090;2023-02-18T14:52:11;12.77;;;6.78;;
68507;SDS011;55510;49.560;19.090;2023-02-18T14:55:29;16.67;;;8.13;;
68507;SDS011;55510;49.560;19.090;2023-02-18T15:01:45;23.23;;;10.98;;
68507;SDS011;55510;49.560;19.090;2023-02-18T15:04:47;21.90;;;11.00;;
68507;SDS011;55510;49.560;19.090;2023-02-18T15:11:03;29.53;;;12.67;;
68507;SDS011;55510;49.560;19.090;2023-02-18T15:14:13;22.90;;;9.87;;
68507;SDS011;55510;49.560;19.090;2023-02-18T15:17:22;26.75;;;13.02;;
68507;SDS011;55510;49.560;19.090;2023-02-18T15:20:33;23.05;;;10.55;;
68507;SDS011;55510;49.560;19.090;2023-02-18T15:23:35;38.92;;;20.15;;
68507;SDS011;55510;49.560;19.090;2023-02-18T15:26:40;34.03;;;15.43;;
68507;SDS011;55510;49.560;19.090;2023-02-18T15:29:43;18.47;;;7.07;;
68507;SDS011;55510;49.560;19.090;2023-02-18T15:32:53;17.65;;;8.05;;
68507;SDS011;55510;49.560;19.090;2023-02-18T15:36:02;19.38;;;7.75;;
68507;SDS011;55510;49.560;19.090;2023-02-18T15:39:04;20.55;;;7.10;;
68507;SDS011;55510;49.560;19.090;2023-02-18T15:42:06;12.10;;;4.90;;
68507;SDS011;55510;49.560;19.090;2023-02-18T15:48:21;10.90;;;5.13;;
68507;SDS011;55510;49.560;19.090;2023-02-18T15:51:35;11.67;;;4.27;;
68507;SDS011;55510;49.560;19.090;2023-02-18T15:54:37;13.10;;;5.25;;
68507;SDS011;55510;49.560;19.090;2023-02-18T15:57:40;55.50;;;21.40;;
68507;SDS011;55510;49.560;19.090;2023-02-18T16:03:50;9.53;;;4.10;;
68507;SDS011;55510;49.560;19.090;2023-02-18T16:06:52;9.50;;;3.88;;
68507;SDS011;55510;49.560;19.090;2023-02-18T16:10:12;10.05;;;4.43;;
68507;SDS011;55510;49.560;19.090;2023-02-18T16:13:15;9.85;;;4.18;;
68507;SDS011;55510;49.560;19.090;2023-02-18T16:16:19;13.07;;;5.73;;
68507;SDS011;55510;49.560;19.090;2023-02-18T16:19:29;22.63;;;13.27;;
68507;SDS011;55510;49.560;19.090;2023-02-18T16:25:42;15.38;;;7.75;;
68507;SDS011;55510;49.560;19.090;2023-02-18T16:28:49;18.92;;;7.93;;
68507;SDS011;55510;49.560;19.090;2023-02-18T16:31:51;19.30;;;8.47;;
68507;SDS011;55510;49.560;19.090;2023-02-18T16:34:52;14.65;;;6.18;;
68507;SDS011;55510;49.560;19.090;2023-02-18T16:37:53;14.93;;;6.53;;
68507;SDS011;55510;49.560;19.090;2023-02-18T16:40:56;19.02;;;8.13;;
68507;SDS011;55510;49.560;19.090;2023-02-18T16:43:57;16.33;;;8.40;;
68507;SDS011;55510;49.560;19.090;2023-02-18T16:46:58;28.67;;;14.23;;
68507;SDS011;55510;49.560;19.090;2023-02-18T16:49:59;34.10;;;15.73;;
68507;SDS011;55510;49.560;19.090;2023-02-18T16:53:01;25.90;;;11.63;;
68507;SDS011;55510;49.560;19.090;2023-02-18T16:56:02;31.43;;;13.87;;
68507;SDS011;55510;49.560;19.090;2023-02-18T16:59:03;25.45;;;10.60;;
68507;SDS011;55510;49.560;19.090;2023-02-18T17:02:08;18.17;;;9.32;;
68507;SDS011;55510;49.560;19.090;2023-02-18T17:05:24;26.83;;;12.30;;
68507;SDS011;55510;49.560;19.090;2023-02-18T17:08:27;20.97;;;10.00;;
68507;SDS011;55510;49.560;19.090;2023-02-18T17:11:29;16.98;;;8.60;;
68507;SDS011;55510;49.560;19.090;2023-02-18T17:14:33;21.77;;;9.73;;
68507;SDS011;55510;49.560;19.090;2023-02-18T17:17:33;18.70;;;9.65;;
68507;SDS011;55510;49.560;19.090;2023-02-18T17:20:35;15.97;;;7.87;;
68507;SDS011;55510;49.560;19.090;2023-02-18T17:23:36;18.83;;;8.30;;
68507;SDS011;55510;49.560;19.090;2023-02-18T17:26:37;33.90;;;14.98;;
68507;SDS011;55510;49.560;19.090;2023-02-18T17:29:40;30.45;;;14.13;;
68507;SDS011;55510;49.560;19.090;2023-02-18T17:32:41;25.80;;;11.00;;
68507;SDS011;55510;49.560;19.090;2023-02-18T17:35:43;24.67;;;12.93;;
68507;SDS011;55510;49.560;19.090;2023-02-18T17:38:45;40.47;;;18.10;;
68507;SDS011;55510;49.560;19.090;2023-02-18T17:41:45;44.23;;;19.47;;
68507;SDS011;55510;49.560;19.090;2023-02-18T17:44:46;45.78;;;20.90;;
68507;SDS011;55510;49.560;19.090;2023-02-18T17:47:47;55.30;;;24.27;;
68507;SDS011;55510;49.560;19.090;2023-02-18T17:50:48;54.08;;;27.23;;
68507;SDS011;55510;49.560;19.090;2023-02-18T17:53:49;58.25;;;24.58;;
68507;SDS011;55510;49.560;19.090;2023-02-18T17:56:50;43.90;;;20.10;;
68507;SDS011;55510;49.560;19.090;2023-02-18T17:59:50;48.20;;;20.80;;
68507;SDS011;55510;49.560;19.090;2023-02-18T18:02:51;53.67;;;23.00;;
68507;SDS011;55510;49.560;19.090;2023-02-18T18:05:52;56.03;;;24.08;;
68507;SDS011;55510;49.560;19.090;2023-02-18T18:08:53;49.97;;;22.33;;
68507;SDS011;55510;49.560;19.090;2023-02-18T18:11:54;37.33;;;18.40;;
68507;SDS011;55510;49.560;19.090;2023-02-18T18:14:55;31.13;;;15.10;;
68507;SDS011;55510;49.560;19.090;2023-02-18T18:17:56;25.87;;;11.77;;
68507;SDS011;55510;49.560;19.090;2023-02-18T18:20:58;15.93;;;7.50;;
68507;SDS011;55510;49.560;19.090;2023-02-18T18:24:00;41.25;;;18.35;;
68507;SDS011;55510;49.560;19.090;2023-02-18T18:27:02;25.15;;;12.98;;
68507;SDS011;55510;49.560;19.090;2023-02-18T18:30:02;22.10;;;11.13;;
68507;SDS011;55510;49.560;19.090;2023-02-18T18:36:24;15.98;;;9.00;;
68507;SDS011;55510;49.560;19.090;2023-02-18T18:39:25;12.40;;;8.05;;
68507;SDS011;55510;49.560;19.090;2023-02-18T18:42:26;14.30;;;7.93;;
68507;SDS011;55510;49.560;19.090;2023-02-18T18:45:27;13.50;;;6.63;;
68507;SDS011;55510;49.560;19.090;2023-02-18T18:48:30;13.85;;;9.52;;
68507;SDS011;55510;49.560;19.090;2023-02-18T18:51:31;8.82;;;4.55;;
68507;SDS011;55510;49.560;19.090;2023-02-18T18:54:32;9.23;;;4.03;;
68507;SDS011;55510;49.560;19.090;2023-02-18T18:57:33;12.45;;;6.57;;
68507;SDS011;55510;49.560;19.090;2023-02-18T19:00:34;8.33;;;4.17;;
68507;SDS011;55510;49.560;19.090;2023-02-18T19:03:40;8.48;;;4.63;;
68507;SDS011;55510;49.560;19.090;2023-02-18T19:06:41;12.77;;;3.85;;
68507;SDS011;55510;49.560;19.090;2023-02-18T19:09:42;8.10;;;4.20;;
68507;SDS011;55510;49.560;19.090;2023-02-18T19:12:42;9.90;;;5.13;;
68507;SDS011;55510;49.560;19.090;2023-02-18T19:15:44;9.00;;;4.60;;
68507;SDS011;55510;49.560;19.090;2023-02-18T19:18:45;6.78;;;3.63;;
68507;SDS011;55510;49.560;19.090;2023-02-18T19:21:47;8.48;;;3.10;;
68507;SDS011;55510;49.560;19.090;2023-02-18T19:24:48;6.93;;;2.78;;
68507;SDS011;55510;49.560;19.090;2023-02-18T19:27:49;8.40;;;3.30;;
68507;SDS011;55510;49.560;19.090;2023-02-18T19:30:50;8.10;;;3.22;;
68507;SDS011;55510;49.560;19.090;2023-02-18T19:33:51;6.25;;;2.90;;
68507;SDS011;55510;49.560;19.090;2023-02-18T19:36:52;10.63;;;3.50;;
68507;SDS011;55510;49.560;19.090;2023-02-18T19:39:53;7.43;;;3.33;;
68507;SDS011;55510;49.560;19.090;2023-02-18T19:42:55;19.30;;;6.00;;
68507;SDS011;55510;49.560;19.090;2023-02-18T19:45:56;14.07;;;5.00;;
68507;SDS011;55510;49.560;19.090;2023-02-18T19:48:57;8.73;;;4.37;;
68507;SDS011;55510;49.560;19.090;2023-02-18T19:52:00;5.03;;;2.35;;
68507;SDS011;55510;49.560;19.090;2023-02-18T19:55:03;5.30;;;1.90;;
68507;SDS011;55510;49.560;19.090;2023-02-18T19:58:04;6.00;;;2.08;;
68507;SDS011;55510;49.560;19.090;2023-02-18T20:01:11;4.60;;;1.50;;
68507;SDS011;55510;49.560;19.090;2023-02-18T20:04:13;7.83;;;2.30;;
68507;SDS011;55510;49.560;19.090;2023-02-18T20:07:15;7.75;;;1.90;;
68507;SDS011;55510;49.560;19.090;2023-02-18T20:10:17;8.00;;;2.38;;
68507;SDS011;55510;49.560;19.090;2023-02-18T20:13:21;10.27;;;2.50;;
68507;SDS011;55510;49.560;19.090;2023-02-18T20:16:22;7.50;;;2.30;;
68507;SDS011;55510;49.560;19.090;2023-02-18T20:19:23;13.32;;;3.28;;
68507;SDS011;55510;49.560;19.090;2023-02-18T20:22:25;8.10;;;1.70;;
68507;SDS011;55510;49.560;19.090;2023-02-18T20:25:25;17.92;;;3.97;;
68507;SDS011;55510;49.560;19.090;2023-02-18T20:28:27;6.22;;;2.60;;
68507;SDS011;55510;49.560;19.090;2023-02-18T20:31:28;16.60;;;4.40;;
68507;SDS011;55510;49.560;19.090;2023-02-18T20:34:29;8.45;;;3.10;;
68507;SDS011;55510;49.560;19.090;2023-02-18T20:37:30;10.10;;;4.03;;
68507;SDS011;55510;49.560;19.090;2023-02-18T20:40:31;12.73;;;4.68;;
68507;SDS011;55510;49.560;19.090;2023-02-18T20:43:32;5.90;;;1.70;;
68507;SDS011;55510;49.560;19.090;2023-02-18T20:46:33;9.25;;;2.47;;
68507;SDS011;55510;49.560;19.090;2023-02-18T20:49:36;10.10;;;3.40;;
68507;SDS011;55510;49.560;19.090;2023-02-18T20:52:37;10.43;;;2.92;;